Westmount, Canada
Current Conditions -  °F | °C
As of 5:00 AM on Saturday 22 Nov 2014 (Local Time) from CYUL Reporting Station
Broken Clouds Broken Clouds  
Wind Chill: -12°   Ceiling: 9000
Heat Index: -4°   Visibility: 15mi
Dew Point: -9°   Wind: 22mph
Humidity: 69%   Direction: 220°SW
Pressure: 30.22"   Gusts: NA
Location:  45.48°N, 73.6°W
Report Text: CYUL 221000Z 22019KT 15SM FEW015 FEW040 BKN090 BKN140 M04/M09 A3022 RMK SF1SC1AC5AC2 SF TR SC TR SLP235
Loading
Personal Weather Stations






























Interactive Weather Map New forecast layout! Learn more

10-Day Weather Forecast

Advertisements
Track Severe Weather on mobile